createdAt,value
2017-09-17T00:00:46.750Z,37.37
2017-09-17T00:03:14.105Z,34.20
2017-09-17T00:05:41.427Z,36.70
2017-09-17T00:08:08.792Z,37.73
2017-09-17T00:10:36.111Z,34.17
2017-09-17T00:13:03.478Z,35.10
2017-09-17T00:15:30.784Z,32.87
2017-09-17T00:17:58.158Z,34.70
2017-09-17T00:20:25.456Z,36.00
2017-09-17T00:22:52.776Z,37.87
2017-09-17T00:25:20.085Z,32.93
2017-09-17T00:27:47.400Z,33.70
2017-09-17T00:30:14.724Z,37.37
2017-09-17T00:32:42.038Z,34.23
2017-09-17T00:35:09.363Z,36.90
2017-09-17T00:37:36.674Z,35.80
2017-09-17T00:40:04.014Z,28.33
2017-09-17T00:42:31.360Z,35.20
2017-09-17T00:44:59.015Z,31.70
2017-09-17T00:47:26.344Z,34.53
2017-09-17T00:49:53.688Z,33.67
2017-09-17T00:52:21.016Z,33.47
2017-09-17T00:54:48.378Z,31.90
2017-09-17T00:57:15.698Z,36.87
2017-09-17T00:59:43.967Z,32.50
2017-09-17T01:02:11.307Z,27.80
2017-09-17T01:04:38.666Z,31.50
2017-09-17T01:07:05.986Z,34.83
2017-09-17T01:09:33.338Z,29.10
2017-09-17T01:12:00.666Z,32.00
2017-09-17T01:14:28.012Z,35.73
2017-09-17T01:16:55.336Z,32.13
2017-09-17T01:19:22.636Z,33.97
2017-09-17T01:21:49.952Z,33.20
2017-09-17T01:24:17.263Z,37.43
2017-09-17T01:26:44.619Z,37.37
2017-09-17T01:29:11.962Z,36.77
2017-09-17T01:31:39.313Z,32.03
2017-09-17T01:34:06.651Z,34.80
2017-09-17T01:36:34.010Z,35.53
2017-09-17T01:39:01.318Z,35.00
2017-09-17T01:41:28.996Z,37.47
2017-09-17T01:43:56.300Z,35.13
2017-09-17T01:46:23.704Z,35.83
2017-09-17T01:48:51.013Z,38.13
2017-09-17T01:51:18.338Z,38.50
2017-09-17T01:53:46.575Z,35.27
2017-09-17T01:56:13.895Z,31.00
2017-09-17T01:58:41.208Z,32.70
2017-09-17T02:01:08.546Z,34.50
2017-09-17T02:03:36.260Z,31.10
2017-09-17T02:06:03.608Z,35.90
2017-09-17T02:08:30.976Z,35.03
2017-09-17T02:10:58.306Z,31.53
2017-09-17T02:13:25.652Z,37.33
2017-09-17T02:15:52.996Z,34.00
2017-09-17T02:18:21.229Z,35.10
2017-09-17T02:20:48.579Z,29.40
2017-09-17T02:23:15.937Z,33.13
2017-09-17T02:25:43.252Z,30.53
2017-09-17T02:28:10.625Z,33.57
2017-09-17T02:30:38.869Z,30.97
2017-09-17T02:33:06.307Z,35.03
2017-09-17T02:35:34.587Z,30.57
2017-09-17T02:38:01.927Z,30.80
2017-09-17T02:40:29.258Z,30.17
2017-09-17T02:42:56.633Z,29.67
2017-09-17T02:45:23.946Z,27.07
2017-09-17T02:47:51.284Z,32.80
2017-09-17T02:50:18.624Z,34.17
2017-09-17T02:52:45.988Z,32.30
2017-09-17T02:55:13.316Z,28.10
2017-09-17T02:57:40.668Z,27.83
2017-09-17T03:00:07.979Z,31.37
2017-09-17T03:02:35.331Z,31.90
2017-09-17T03:05:03.585Z,30.57
2017-09-17T03:07:30.942Z,31.67
2017-09-17T03:09:58.265Z,29.27
2017-09-17T03:12:25.616Z,31.03
2017-09-17T03:14:52.942Z,32.87
2017-09-17T03:17:20.243Z,30.13
2017-09-17T03:19:47.570Z,29.97
2017-09-17T03:22:14.878Z,29.00
2017-09-17T03:24:42.250Z,31.07
2017-09-17T03:27:09.560Z,30.50
2017-09-17T03:29:36.906Z,29.53
2017-09-17T03:32:04.246Z,29.87
2017-09-17T03:34:32.330Z,29.57
2017-09-17T03:37:00.561Z,28.90
2017-09-17T03:39:27.904Z,26.17
2017-09-17T03:41:55.227Z,28.67
2017-09-17T03:44:22.552Z,30.03
2017-09-17T03:46:49.848Z,25.80
2017-09-17T03:49:17.164Z,29.83
2017-09-17T03:51:44.496Z,28.10
2017-09-17T03:54:11.868Z,26.23
2017-09-17T03:56:39.177Z,29.57
2017-09-17T03:59:06.566Z,29.57
2017-09-17T04:01:33.877Z,28.30
2017-09-17T04:04:01.215Z,26.53
2017-09-17T04:06:28.579Z,28.17
2017-09-17T04:08:56.222Z,32.00
2017-09-17T04:11:23.573Z,29.97
2017-09-17T04:13:50.877Z,31.23
2017-09-17T04:16:18.220Z,29.57
2017-09-17T04:18:45.558Z,28.67
2017-09-17T04:21:12.913Z,29.33
2017-09-17T04:23:40.246Z,30.10
2017-09-17T04:26:07.594Z,30.17
2017-09-17T04:28:34.903Z,31.40
2017-09-17T04:31:02.219Z,32.17
2017-09-17T04:33:29.563Z,30.20
2017-09-17T04:35:56.869Z,29.80
2017-09-17T04:38:24.193Z,24.93
2017-09-17T04:40:51.512Z,25.37
2017-09-17T04:43:19.881Z,29.47
2017-09-17T04:45:48.189Z,29.70
2017-09-17T04:48:20.979Z,30.90
2017-09-17T04:50:49.529Z,27.97
2017-09-17T04:53:16.828Z,29.77
2017-09-17T04:55:45.083Z,26.07
2017-09-17T04:58:12.410Z,29.73
2017-09-17T05:00:39.720Z,28.30
2017-09-17T05:03:07.080Z,30.50
2017-09-17T05:05:34.388Z,27.57
2017-09-17T05:08:01.715Z,27.57
2017-09-17T05:10:29.334Z,29.37
2017-09-17T05:12:56.681Z,29.87
2017-09-17T05:15:23.986Z,27.00
2017-09-17T05:17:51.310Z,30.37
2017-09-17T05:20:18.616Z,29.80
2017-09-17T05:22:45.968Z,30.50
2017-09-17T05:25:13.294Z,28.70
2017-09-17T05:27:41.584Z,25.00
2017-09-17T05:30:08.902Z,26.43
2017-09-17T05:32:36.541Z,26.10
2017-09-17T05:35:03.892Z,26.80
2017-09-17T05:37:31.224Z,26.10
2017-09-17T05:39:58.568Z,27.83
2017-09-17T05:42:25.896Z,30.13
2017-09-17T05:44:53.231Z,27.83
2017-09-17T05:47:20.602Z,27.37
2017-09-17T05:49:47.940Z,28.50
2017-09-17T05:52:17.222Z,27.20
2017-09-17T05:54:44.581Z,28.47
2017-09-17T05:57:11.905Z,25.63
2017-09-17T05:59:39.257Z,24.77
2017-09-17T06:02:06.594Z,26.63
2017-09-17T06:04:33.933Z,25.20
2017-09-17T06:07:01.268Z,26.57
2017-09-17T06:09:28.646Z,27.97
2017-09-17T06:11:56.003Z,26.13
2017-09-17T06:14:23.325Z,24.83
2017-09-17T06:16:50.932Z,26.50
2017-09-17T06:19:18.278Z,26.80
2017-09-17T06:21:45.737Z,27.60
2017-09-17T06:24:13.089Z,29.93
2017-09-17T06:26:40.433Z,28.83
2017-09-17T06:29:07.788Z,27.13
2017-09-17T06:31:35.132Z,29.63
2017-09-17T06:34:02.778Z,24.63
2017-09-17T06:36:30.108Z,26.97
2017-09-17T06:38:57.727Z,27.83
2017-09-17T06:41:25.046Z,32.13
2017-09-17T06:43:52.369Z,25.40
2017-09-17T06:46:19.801Z,24.17
2017-09-17T06:48:47.109Z,25.70
2017-09-17T06:51:14.683Z,32.23
2017-09-17T06:53:41.986Z,25.07
2017-09-17T06:56:09.341Z,25.17
2017-09-17T06:58:36.757Z,24.63
2017-09-17T07:01:04.134Z,25.53
2017-09-17T07:03:31.440Z,25.40
2017-09-17T07:05:58.770Z,22.37
2017-09-17T07:08:26.074Z,24.57
2017-09-17T07:10:54.496Z,26.27
2017-09-17T07:13:21.897Z,23.00
2017-09-17T07:15:49.192Z,23.80
2017-09-17T07:18:16.528Z,24.00
2017-09-17T07:20:43.857Z,27.57
2017-09-17T07:23:11.222Z,25.60
2017-09-17T07:25:38.534Z,25.07
2017-09-17T07:28:05.923Z,24.23
2017-09-17T07:30:33.237Z,23.63
2017-09-17T07:33:00.593Z,27.10
2017-09-17T07:35:27.922Z,25.00
2017-09-17T07:37:55.261Z,24.53
2017-09-17T07:40:22.605Z,24.67
2017-09-17T07:42:50.280Z,24.50
2017-09-17T07:45:17.573Z,26.43
2017-09-17T07:47:44.894Z,24.90
2017-09-17T07:50:12.197Z,23.97
2017-09-17T07:52:39.534Z,23.20
2017-09-17T07:55:06.883Z,25.27
2017-09-17T07:57:34.223Z,22.00
2017-09-17T08:00:01.537Z,25.00
2017-09-17T08:02:28.869Z,23.50
2017-09-17T08:04:56.222Z,23.30
2017-09-17T08:07:23.556Z,25.10
2017-09-17T08:09:50.897Z,29.03
2017-09-17T08:12:18.230Z,22.93
2017-09-17T08:14:45.605Z,26.83
2017-09-17T08:17:12.917Z,26.80
2017-09-17T08:19:40.275Z,22.33
2017-09-17T08:22:07.601Z,24.17
2017-09-17T08:24:34.962Z,22.40
2017-09-17T08:27:02.286Z,22.70
2017-09-17T08:29:29.623Z,23.27
2017-09-17T08:31:56.965Z,25.17
2017-09-17T08:34:24.375Z,21.43
2017-09-17T08:36:51.680Z,19.67
2017-09-17T08:39:19.022Z,22.93
2017-09-17T08:41:46.342Z,18.97
2017-09-17T08:44:13.997Z,18.70
2017-09-17T08:46:41.301Z,22.43
2017-09-17T08:49:08.644Z,19.90
2017-09-17T08:51:35.988Z,19.40
2017-09-17T08:54:03.328Z,22.40
2017-09-17T08:56:30.693Z,19.27
2017-09-17T08:58:58.021Z,18.17
2017-09-17T09:01:25.386Z,21.40
2017-09-17T09:03:52.700Z,19.30
2017-09-17T09:06:20.049Z,21.80
2017-09-17T09:08:47.349Z,19.70
2017-09-17T09:11:14.681Z,20.20
2017-09-17T09:13:41.981Z,19.70
2017-09-17T09:16:09.409Z,19.20
2017-09-17T09:18:36.757Z,19.80
2017-09-17T09:21:04.204Z,20.47
2017-09-17T09:23:31.509Z,20.37
2017-09-17T09:25:58.847Z,17.83
2017-09-17T09:28:26.149Z,18.10
2017-09-17T09:30:53.832Z,19.43
2017-09-17T09:33:21.205Z,17.20
2017-09-17T09:35:48.520Z,16.97
2017-09-17T09:38:15.835Z,16.03
2017-09-17T09:40:43.157Z,14.20
2017-09-17T09:43:10.461Z,16.00
2017-09-17T09:45:37.785Z,14.50
2017-09-17T09:48:05.121Z,11.10
2017-09-17T09:50:32.429Z,14.70
2017-09-17T09:52:59.745Z,12.87
2017-09-17T09:55:27.069Z,12.80
2017-09-17T09:57:54.728Z,12.50
2017-09-17T10:00:22.070Z,13.67
2017-09-17T10:02:49.429Z,14.13
2017-09-17T10:05:16.761Z,12.40
2017-09-17T10:07:44.122Z,10.50
2017-09-17T10:10:11.428Z,9.20
2017-09-17T10:12:39.072Z,12.03
2017-09-17T10:15:06.417Z,12.03
2017-09-17T10:17:34.575Z,11.53
2017-09-17T10:20:01.913Z,10.40
2017-09-17T10:22:29.306Z,9.47
2017-09-17T10:24:56.605Z,12.77
2017-09-17T10:27:23.957Z,9.17
2017-09-17T10:29:51.293Z,8.87
2017-09-17T10:32:18.660Z,9.83
2017-09-17T10:34:45.969Z,10.13
2017-09-17T10:37:13.326Z,9.90
2017-09-17T10:39:40.698Z,8.00
2017-09-17T10:42:08.013Z,6.80
2017-09-17T10:44:35.345Z,7.73
2017-09-17T10:47:02.882Z,7.60
2017-09-17T10:49:30.218Z,7.97
2017-09-17T10:51:57.509Z,7.93
2017-09-17T10:54:25.132Z,11.03
2017-09-17T10:56:52.479Z,9.43
2017-09-17T10:59:19.809Z,9.60
2017-09-17T11:01:47.157Z,7.43
2017-09-17T11:04:14.507Z,9.87
2017-09-17T11:06:42.301Z,9.60
2017-09-17T11:09:09.655Z,7.40
2017-09-17T11:11:36.966Z,10.10
2017-09-17T11:14:04.270Z,8.93
2017-09-17T11:16:31.615Z,10.70
2017-09-17T11:18:58.947Z,8.63
2017-09-17T11:21:26.301Z,8.70
2017-09-17T11:23:53.602Z,9.47
2017-09-17T11:26:20.922Z,11.50
2017-09-17T11:28:48.220Z,6.40
2017-09-17T11:31:15.547Z,6.80
2017-09-17T11:33:42.868Z,6.50
2017-09-17T11:36:10.176Z,5.60
2017-09-17T11:38:37.469Z,7.83
2017-09-17T11:41:04.805Z,5.90
2017-09-17T11:43:32.142Z,5.90
2017-09-17T11:45:59.476Z,6.17
2017-09-17T11:48:26.805Z,6.20
2017-09-17T11:50:54.120Z,5.90
2017-09-17T11:53:21.413Z,4.80
2017-09-17T11:55:48.751Z,7.00
2017-09-17T11:58:16.055Z,6.20
2017-09-17T12:00:43.399Z,4.37
2017-09-17T12:03:10.713Z,3.40
2017-09-17T12:05:38.045Z,5.03
2017-09-17T12:08:05.380Z,5.00
2017-09-17T12:10:32.988Z,4.83
2017-09-17T12:13:00.326Z,4.20
2017-09-17T12:15:27.638Z,4.70
2017-09-17T12:17:54.929Z,3.80
2017-09-17T12:20:22.284Z,4.33
2017-09-17T12:22:49.584Z,4.00
2017-09-17T12:25:16.902Z,3.43
2017-09-17T12:27:44.271Z,3.50
2017-09-17T12:30:11.724Z,3.20
2017-09-17T12:32:39.069Z,4.40
2017-09-17T12:35:06.363Z,5.93
2017-09-17T12:37:33.690Z,4.20
2017-09-17T12:40:00.998Z,4.47
2017-09-17T12:42:28.343Z,3.67
2017-09-17T12:44:55.689Z,4.70
2017-09-17T12:47:23.017Z,3.80
2017-09-17T12:49:50.392Z,7.70
2017-09-17T12:52:17.701Z,3.97
2017-09-17T12:54:45.052Z,4.17
2017-09-17T12:57:12.477Z,4.80
2017-09-17T12:59:39.793Z,4.70
2017-09-17T13:02:07.108Z,4.87
2017-09-17T13:04:34.408Z,4.83
2017-09-17T13:07:01.811Z,5.50
2017-09-17T13:09:29.105Z,9.03
2017-09-17T13:11:56.742Z,5.80
2017-09-17T13:14:24.068Z,4.00
2017-09-17T13:16:51.414Z,4.53
2017-09-17T13:19:18.736Z,3.90
2017-09-17T13:21:46.048Z,8.33
2017-09-17T13:24:13.340Z,5.47
2017-09-17T13:26:40.685Z,6.70
2017-09-17T13:29:07.999Z,7.60
2017-09-17T13:31:35.362Z,3.80
2017-09-17T13:34:02.689Z,4.23
2017-09-17T13:36:30.006Z,4.87
2017-09-17T13:38:57.365Z,3.40
2017-09-17T13:41:24.668Z,4.33
2017-09-17T13:43:51.973Z,3.80
2017-09-17T13:46:19.305Z,5.00
2017-09-17T13:48:46.628Z,3.70
2017-09-17T13:51:13.922Z,4.00
2017-09-17T13:53:41.233Z,4.13
2017-09-17T13:56:08.549Z,4.50
2017-09-17T13:58:35.874Z,5.83
2017-09-17T14:01:09.026Z,4.50
2017-09-17T14:03:36.864Z,6.60
2017-09-17T14:06:04.234Z,5.70
2017-09-17T14:08:43.205Z,5.03
2017-09-17T14:11:13.158Z,5.77
2017-09-17T14:13:40.470Z,6.67
2017-09-17T14:16:07.844Z,5.50
2017-09-17T14:18:35.619Z,6.57
2017-09-17T14:21:03.159Z,6.00
2017-09-17T14:23:30.475Z,7.53
2017-09-17T14:25:57.945Z,7.67
2017-09-17T14:28:25.255Z,8.03
2017-09-17T14:30:52.540Z,9.80
2017-09-17T14:33:19.892Z,6.57
2017-09-17T14:35:47.213Z,5.87
2017-09-17T14:38:14.560Z,6.10
2017-09-17T14:40:41.854Z,4.80
2017-09-17T14:43:09.164Z,5.50
2017-09-17T14:45:36.465Z,5.53
2017-09-17T14:48:03.798Z,4.87
2017-09-17T14:50:32.069Z,7.43
2017-09-17T14:52:59.637Z,6.67
2017-09-17T14:55:26.972Z,5.47
2017-09-17T14:57:54.291Z,5.10
2017-09-17T15:00:21.644Z,6.80
2017-09-17T15:02:48.953Z,5.20
2017-09-17T15:05:16.271Z,5.03
2017-09-17T15:07:43.580Z,3.70
2017-09-17T15:10:10.909Z,6.50
2017-09-17T15:12:38.221Z,4.53
2017-09-17T15:15:06.515Z,3.90
2017-09-17T15:17:33.816Z,6.07
2017-09-17T15:20:02.013Z,4.43
2017-09-17T15:22:29.326Z,5.17
2017-09-17T15:24:56.620Z,4.43
2017-09-17T15:27:23.928Z,5.20
2017-09-17T15:29:51.237Z,4.60
2017-09-17T15:32:18.534Z,12.20
2017-09-17T15:34:45.885Z,22.60
2017-09-17T15:37:13.194Z,11.90
2017-09-17T15:39:40.535Z,10.27
2017-09-17T15:42:07.838Z,18.80
2017-09-17T15:44:35.343Z,10.80
2017-09-17T15:47:02.665Z,10.50
2017-09-17T15:49:30.031Z,11.80
2017-09-17T15:51:57.356Z,15.80
2017-09-17T15:54:24.721Z,22.97
2017-09-17T15:56:52.037Z,27.00
2017-09-17T15:59:20.051Z,21.17
2017-09-17T16:01:47.356Z,29.97
2017-09-17T16:04:14.692Z,18.87
2017-09-17T16:06:42.040Z,15.77
2017-09-17T16:09:09.369Z,18.73
2017-09-17T16:11:36.718Z,15.23
2017-09-17T16:14:04.058Z,16.40
2017-09-17T16:16:31.377Z,15.57
2017-09-17T16:18:58.733Z,17.00
2017-09-17T16:21:26.066Z,50.40
2017-09-17T16:23:53.410Z,39.50
2017-09-17T16:26:20.741Z,28.60
2017-09-17T16:28:48.067Z,19.40
2017-09-17T16:31:15.369Z,14.77
2017-09-17T16:33:42.685Z,13.63
2017-09-17T16:36:09.986Z,7.07
2017-09-17T16:38:37.320Z,8.83
2017-09-17T16:41:04.622Z,5.23
2017-09-17T16:43:31.933Z,7.13
2017-09-17T16:45:59.252Z,5.40
2017-09-17T16:48:26.561Z,5.70
2017-09-17T16:50:53.841Z,7.00
2017-09-17T16:53:21.173Z,9.00
2017-09-17T16:55:48.465Z,8.13
2017-09-17T16:58:15.766Z,6.30
2017-09-17T17:00:43.068Z,6.20
2017-09-17T17:03:10.384Z,10.27
2017-09-17T17:05:37.709Z,12.73
2017-09-17T17:08:05.021Z,9.63
2017-09-17T17:10:32.332Z,7.80
2017-09-17T17:12:59.625Z,8.40
2017-09-17T17:15:26.965Z,9.83
2017-09-17T17:17:54.303Z,11.50
2017-09-17T17:20:21.646Z,8.93
2017-09-17T17:22:48.973Z,11.33
2017-09-17T17:25:16.321Z,8.20
2017-09-17T17:27:43.654Z,12.80
2017-09-17T17:30:10.965Z,13.10
2017-09-17T17:32:38.265Z,11.90
2017-09-17T17:35:05.603Z,14.97
2017-09-17T17:37:34.866Z,13.57
2017-09-17T17:40:02.212Z,13.33
2017-09-17T17:42:30.465Z,15.37
2017-09-17T17:44:57.850Z,11.37
2017-09-17T17:47:25.144Z,14.80
2017-09-17T17:49:52.460Z,15.23
2017-09-17T17:52:19.765Z,19.23
2017-09-17T17:54:47.120Z,21.40
2017-09-17T17:57:14.449Z,21.73
2017-09-17T17:59:41.753Z,15.50
2017-09-17T18:02:09.065Z,16.87
2017-09-17T18:04:36.372Z,14.87
2017-09-17T18:07:03.750Z,21.90
2017-09-17T18:09:31.268Z,17.53
2017-09-17T18:11:58.885Z,21.77
2017-09-17T18:14:26.205Z,18.67
2017-09-17T18:16:53.526Z,19.93
2017-09-17T18:19:20.832Z,27.27
2017-09-17T18:21:48.149Z,26.13
2017-09-17T18:24:15.470Z,31.70
2017-09-17T18:26:42.797Z,22.20
2017-09-17T18:29:10.145Z,20.57
2017-09-17T18:31:37.543Z,20.90
2017-09-17T18:34:04.840Z,25.30
2017-09-17T18:36:32.165Z,25.93
2017-09-17T18:38:59.473Z,23.00
2017-09-17T18:41:26.802Z,24.53
2017-09-17T18:43:54.357Z,25.13
2017-09-17T18:46:21.665Z,23.07
2017-09-17T18:48:48.994Z,23.07
2017-09-17T18:51:16.347Z,24.10
2017-09-17T18:53:43.672Z,28.53
2017-09-17T18:56:10.994Z,35.00
2017-09-17T18:58:38.309Z,31.20
2017-09-17T19:01:05.636Z,30.77
2017-09-17T19:03:32.948Z,44.13
2017-09-17T19:06:00.628Z,30.93
2017-09-17T19:08:27.928Z,30.03
2017-09-17T19:10:55.272Z,32.03
2017-09-17T19:13:22.610Z,26.93
2017-09-17T19:15:49.937Z,34.93
2017-09-17T19:18:17.246Z,41.60
2017-09-17T19:20:45.461Z,47.00
2017-09-17T19:23:12.853Z,42.60
2017-09-17T19:25:40.162Z,37.33
2017-09-17T19:28:07.808Z,35.23
2017-09-17T19:30:35.113Z,35.53
2017-09-17T19:33:02.429Z,35.60
2017-09-17T19:35:29.790Z,39.97
2017-09-17T19:37:57.119Z,45.03
2017-09-17T19:40:24.451Z,49.50
2017-09-17T19:42:51.774Z,42.57
2017-09-17T19:45:19.072Z,44.00
2017-09-17T19:47:46.791Z,37.60
2017-09-17T19:50:14.098Z,40.40
2017-09-17T19:52:41.431Z,39.57
2017-09-17T19:55:08.748Z,39.47
2017-09-17T19:57:36.065Z,40.87
2017-09-17T20:00:03.625Z,39.83
2017-09-17T20:02:30.986Z,43.40
2017-09-17T20:04:58.307Z,45.83
2017-09-17T20:07:25.634Z,45.53
2017-09-17T20:09:52.976Z,47.53
2017-09-17T20:12:20.274Z,46.03
2017-09-17T20:14:47.574Z,41.50
2017-09-17T20:17:14.893Z,40.60
2017-09-17T20:19:42.202Z,42.77
2017-09-17T20:22:09.557Z,47.00
2017-09-17T20:24:36.938Z,46.37
2017-09-17T20:27:04.305Z,46.63
2017-09-17T20:29:31.608Z,52.23
2017-09-17T20:31:59.189Z,54.67
2017-09-17T20:34:26.509Z,50.10
2017-09-17T20:36:53.829Z,45.93
2017-09-17T20:39:21.141Z,46.93
2017-09-17T20:41:48.465Z,43.07
2017-09-17T20:44:15.773Z,42.63
2017-09-17T20:46:43.154Z,36.23
2017-09-17T20:49:10.463Z,31.80
2017-09-17T20:51:37.765Z,27.93
2017-09-17T20:54:05.093Z,29.93
2017-09-17T20:56:32.405Z,22.70
2017-09-17T20:58:59.759Z,22.20
2017-09-17T21:01:27.067Z,28.43
2017-09-17T21:03:54.377Z,21.90
2017-09-17T21:06:21.677Z,18.77
2017-09-17T21:08:48.996Z,18.90
2017-09-17T21:11:16.325Z,18.40
2017-09-17T21:13:43.873Z,16.47
2017-09-17T21:16:11.227Z,16.57
2017-09-17T21:18:38.568Z,16.60
2017-09-17T21:21:05.895Z,13.23
2017-09-17T21:23:33.257Z,18.33
2017-09-17T21:26:00.593Z,15.17
2017-09-17T21:28:28.236Z,14.30
2017-09-17T21:30:55.534Z,11.67
2017-09-17T21:33:22.849Z,15.30
2017-09-17T21:35:50.153Z,12.73
2017-09-17T21:38:17.495Z,11.20
2017-09-17T21:40:44.809Z,10.93
2017-09-17T21:43:12.126Z,11.63
2017-09-17T21:45:39.428Z,10.70
2017-09-17T21:48:08.701Z,11.80
2017-09-17T21:50:36.016Z,11.23
2017-09-17T21:53:03.360Z,13.00
2017-09-17T21:55:30.654Z,11.57
2017-09-17T21:57:57.949Z,13.77
2017-09-17T22:00:25.313Z,10.57
2017-09-17T22:02:52.640Z,11.63
2017-09-17T22:05:19.993Z,11.80
2017-09-17T22:07:47.313Z,11.90
2017-09-17T22:10:14.692Z,11.90
2017-09-17T22:12:41.985Z,10.73
2017-09-17T22:15:09.314Z,11.67
2017-09-17T22:17:36.618Z,11.80
2017-09-17T22:20:03.937Z,14.10
2017-09-17T22:22:31.262Z,11.37
2017-09-17T22:24:58.613Z,13.30
2017-09-17T22:27:25.943Z,13.50
2017-09-17T22:29:53.262Z,11.60
2017-09-17T22:32:20.557Z,13.27
2017-09-17T22:34:47.878Z,11.90
2017-09-17T22:37:15.177Z,14.77
2017-09-17T22:39:42.501Z,16.40
2017-09-17T22:42:09.824Z,13.53
2017-09-17T22:44:37.162Z,16.27
2017-09-17T22:47:04.470Z,14.60
2017-09-17T22:49:31.807Z,15.60
2017-09-17T22:51:59.277Z,14.10
2017-09-17T22:54:26.581Z,14.87
2017-09-17T22:56:53.906Z,15.20
2017-09-17T22:59:21.216Z,13.90
2017-09-17T23:01:48.573Z,15.50
2017-09-17T23:04:16.768Z,15.27
2017-09-17T23:06:44.093Z,15.03
2017-09-17T23:09:11.398Z,14.70
2017-09-17T23:11:38.721Z,14.47
2017-09-17T23:14:06.033Z,12.60
2017-09-17T23:16:33.350Z,15.63
2017-09-17T23:19:00.661Z,15.57
2017-09-17T23:21:27.989Z,15.17
2017-09-17T23:23:55.293Z,12.00
2017-09-17T23:26:22.614Z,15.97
2017-09-17T23:28:49.925Z,12.30
2017-09-17T23:31:17.232Z,12.00
2017-09-17T23:33:44.562Z,14.30
2017-09-17T23:36:11.943Z,15.53
2017-09-17T23:38:39.240Z,15.07
2017-09-17T23:41:06.577Z,15.33
2017-09-17T23:43:33.933Z,19.70
2017-09-17T23:46:02.219Z,14.50
2017-09-17T23:48:29.544Z,15.10
2017-09-17T23:50:56.873Z,15.77
2017-09-17T23:53:29.998Z,15.67
2017-09-17T23:55:57.301Z,15.40
2017-09-17T23:58:24.641Z,14.90
